createdAt,value
2022-08-12T00:00:32.606Z,16.96
2022-08-12T00:04:18.594Z,17.02
2022-08-12T00:08:04.457Z,16.94
2022-08-12T00:11:50.412Z,16.86
2022-08-12T00:15:29.001Z,16.78
2022-08-12T00:19:15.103Z,16.74
2022-08-12T00:23:01.137Z,16.70
2022-08-12T00:26:47.050Z,16.67
2022-08-12T00:30:31.690Z,16.63
2022-08-12T00:34:20.183Z,16.64
2022-08-12T00:38:07.598Z,16.58
2022-08-12T00:41:53.876Z,16.57
2022-08-12T00:45:34.298Z,16.56
2022-08-12T00:49:14.389Z,16.52
2022-08-12T00:52:55.877Z,16.45
2022-08-12T00:56:34.486Z,16.35
2022-08-12T01:00:01.833Z,16.26
2022-08-12T01:03:49.266Z,16.16
2022-08-12T01:07:35.203Z,16.08
2022-08-12T01:11:00.798Z,15.86
2022-08-12T01:14:48.271Z,15.70
2022-08-12T01:18:35.666Z,15.48
2022-08-12T01:22:33.664Z,15.34
2022-08-12T01:26:21.116Z,15.54
2022-08-12T01:30:08.650Z,15.73
2022-08-12T01:33:49.446Z,15.83
2022-08-12T01:37:39.402Z,15.88
2022-08-12T01:41:11.250Z,15.89
2022-08-12T01:44:57.506Z,15.94
2022-08-12T01:48:28.383Z,15.89
2022-08-12T01:52:20.517Z,15.82
2022-08-12T01:56:10.052Z,15.85
2022-08-12T02:00:06.501Z,15.86
2022-08-12T02:03:42.419Z,15.75
2022-08-12T02:07:43.381Z,15.65
2022-08-12T02:11:38.269Z,15.48
2022-08-12T02:15:28.600Z,15.40
2022-08-12T02:19:27.728Z,15.36
2022-08-12T02:22:38.078Z,15.31
2022-08-12T02:26:31.376Z,15.28
2022-08-12T02:30:18.779Z,15.24
2022-08-12T02:34:06.191Z,15.27
2022-08-12T02:37:53.589Z,15.26
2022-08-12T02:41:41.014Z,15.22
2022-08-12T02:45:28.410Z,15.17
2022-08-12T02:49:21.615Z,15.09
2022-08-12T02:53:07.592Z,15.13
2022-08-12T02:56:40.164Z,15.11
2022-08-12T03:00:27.589Z,15.04
2022-08-12T03:04:20.877Z,14.94
2022-08-12T03:08:05.415Z,14.88
2022-08-12T03:12:01.500Z,14.91
2022-08-12T03:15:50.504Z,14.91
2022-08-12T03:19:37.057Z,14.88
2022-08-12T03:23:36.028Z,14.93
2022-08-12T03:27:25.114Z,14.98
2022-08-12T03:30:56.700Z,15.04
2022-08-12T03:34:44.349Z,15.05
2022-08-12T03:38:31.770Z,15.15
2022-08-12T03:42:09.691Z,15.31
2022-08-12T03:45:58.229Z,15.41
2022-08-12T03:49:44.264Z,15.50
2022-08-12T03:53:29.985Z,15.62
2022-08-12T03:57:16.047Z,15.58
2022-08-12T04:01:03.546Z,15.43
2022-08-12T04:04:46.932Z,15.36
2022-08-12T04:08:26.912Z,15.38
2022-08-12T04:12:12.987Z,15.32
2022-08-12T04:16:01.804Z,15.38
2022-08-12T04:19:49.351Z,15.40
2022-08-12T04:36:07.739Z,15.64
2022-08-12T04:38:47.568Z,16.29
2022-08-12T04:41:16.518Z,16.42
2022-08-12T04:43:59.728Z,16.55
2022-08-12T04:46:46.062Z,16.66
2022-08-12T04:49:23.923Z,16.80
2022-08-12T04:51:53.719Z,16.98
2022-08-12T04:54:47.891Z,17.00
2022-08-12T04:57:22.226Z,16.97
2022-08-12T04:59:59.673Z,17.09
2022-08-12T05:02:27.938Z,17.18
2022-08-12T05:05:00.692Z,17.25
2022-08-12T05:07:34.349Z,17.31
2022-08-12T05:10:44.116Z,17.52
2022-08-12T05:13:23.697Z,17.64
2022-08-12T05:16:09.388Z,17.75
2022-08-12T05:18:39.929Z,17.82
2022-08-12T05:21:21.376Z,17.89
2022-08-12T05:23:55.132Z,17.96
2022-08-12T05:26:28.461Z,18.14
2022-08-12T05:29:03.095Z,18.21
2022-08-12T05:32:20.828Z,18.21
2022-08-12T05:35:10.666Z,18.26
2022-08-12T05:37:42.121Z,18.33
2022-08-12T05:40:11.967Z,18.39
2022-08-12T05:42:40.555Z,18.53
2022-08-12T05:45:09.789Z,18.62
2022-08-12T05:48:00.664Z,18.57
2022-08-12T05:51:03.302Z,18.65
2022-08-12T05:53:54.754Z,18.69
2022-08-12T05:56:30.888Z,18.60
2022-08-12T05:59:01.406Z,18.75
2022-08-12T06:02:09.349Z,18.92
2022-08-12T06:04:45.510Z,19.23
2022-08-12T06:07:40.050Z,19.44
2022-08-12T06:10:16.168Z,19.60
2022-08-12T06:12:53.769Z,19.66
2022-08-12T06:15:22.630Z,19.80
2022-08-12T06:17:53.651Z,20.03
2022-08-12T06:20:30.207Z,20.29
2022-08-12T06:23:21.008Z,20.49
2022-08-12T06:26:16.159Z,21.02
2022-08-12T06:29:11.722Z,21.08
2022-08-12T06:31:54.233Z,21.19
2022-08-12T06:35:25.895Z,21.26
2022-08-12T06:38:24.442Z,21.37
2022-08-12T06:41:21.012Z,21.64
2022-08-12T06:44:07.044Z,22.13
2022-08-12T06:46:39.513Z,22.42
2022-08-12T06:49:36.965Z,22.47
2022-08-12T06:52:07.983Z,22.55
2022-08-12T06:54:39.345Z,22.60
2022-08-12T06:58:06.551Z,22.76
2022-08-12T07:00:11.662Z,22.94
2022-08-12T07:02:51.365Z,23.14
2022-08-12T07:05:24.867Z,23.25
2022-08-12T07:07:59.522Z,23.48
2022-08-12T07:11:10.103Z,23.83
2022-08-12T07:14:20.904Z,24.12
2022-08-12T07:17:15.167Z,24.39
2022-08-12T07:20:52.098Z,24.56
2022-08-12T07:24:36.555Z,24.81
2022-08-12T07:28:16.295Z,25.20
2022-08-12T07:31:30.932Z,25.45
2022-08-12T07:34:21.333Z,25.86
2022-08-12T07:37:50.661Z,26.56
2022-08-12T07:40:26.387Z,28.38
2022-08-12T07:43:01.007Z,28.59
2022-08-12T07:45:33.630Z,28.45
2022-08-12T07:48:08.015Z,28.85
2022-08-12T07:50:46.004Z,28.44
2022-08-12T07:53:18.182Z,28.32
2022-08-12T07:55:49.793Z,29.00
2022-08-12T07:58:18.680Z,28.50
2022-08-12T08:00:58.547Z,28.41
2022-08-12T08:04:02.415Z,28.54
2022-08-12T08:06:34.517Z,28.30
2022-08-12T08:09:05.414Z,28.75
2022-08-12T08:11:55.286Z,29.15
2022-08-12T08:14:28.545Z,29.40
2022-08-12T08:16:59.245Z,28.70
2022-08-12T08:20:02.575Z,28.59
2022-08-12T08:22:42.090Z,28.58
2022-08-12T08:25:36.164Z,28.44
2022-08-12T08:28:26.391Z,28.64
2022-08-12T08:31:20.566Z,28.51
2022-08-12T08:34:09.460Z,28.81
2022-08-12T08:36:41.985Z,28.83
2022-08-12T08:39:13.349Z,28.71
2022-08-12T08:42:18.108Z,29.04
2022-08-12T08:45:14.214Z,29.09
2022-08-12T08:47:46.821Z,29.05
2022-08-12T08:50:19.848Z,29.45
2022-08-12T08:52:53.898Z,29.01
2022-08-12T08:55:33.423Z,29.08
2022-08-12T08:58:21.370Z,28.68
2022-08-12T09:00:59.190Z,28.79
2022-08-12T09:12:42.228Z,30.39
2022-08-12T09:15:16.816Z,29.88
2022-08-12T09:18:08.950Z,30.19
2022-08-12T09:20:40.161Z,30.45
2022-08-12T09:24:00.274Z,30.39
2022-08-12T09:26:29.313Z,30.06
2022-08-12T09:29:00.719Z,30.12
2022-08-12T09:32:06.360Z,29.99
2022-08-12T09:34:43.902Z,29.91
2022-08-12T09:37:22.339Z,30.17
2022-08-12T09:40:05.534Z,30.36
2022-08-12T09:43:22.121Z,30.79
2022-08-12T09:46:28.595Z,30.54
2022-08-12T09:49:01.091Z,30.37
2022-08-12T09:51:43.419Z,30.14
2022-08-12T09:54:31.418Z,30.10
2022-08-12T09:58:46.900Z,30.55
2022-08-12T10:00:17.507Z,30.65
2022-08-12T10:03:07.079Z,30.28
2022-08-12T10:06:19.752Z,30.09
2022-08-12T10:08:38.008Z,29.99
2022-08-12T10:11:27.694Z,30.18
2022-08-12T10:14:00.158Z,30.32
2022-08-12T10:16:44.195Z,30.28
2022-08-12T10:19:19.536Z,30.83
2022-08-12T10:21:47.918Z,31.51
2022-08-12T10:24:27.618Z,30.50
2022-08-12T10:27:16.816Z,29.95
2022-08-12T10:30:40.044Z,29.33
2022-08-12T10:33:32.138Z,29.86
2022-08-12T10:36:40.433Z,30.38
2022-08-12T10:40:03.232Z,29.92
2022-08-12T10:42:46.781Z,30.32
2022-08-12T10:45:57.212Z,30.77
2022-08-12T10:49:05.556Z,31.20
2022-08-12T10:52:02.982Z,31.14
2022-08-12T10:54:28.785Z,29.89
2022-08-12T10:56:58.403Z,30.38
2022-08-12T11:00:01.466Z,30.79
2022-08-12T11:04:37.157Z,30.91
2022-08-12T11:07:06.490Z,30.43
2022-08-12T11:08:38.603Z,30.46
2022-08-12T11:12:07.502Z,30.65
2022-08-12T11:14:47.958Z,30.07
2022-08-12T11:17:33.642Z,30.19
2022-08-12T11:19:51.520Z,30.45
2022-08-12T11:22:24.230Z,30.82
2022-08-12T11:24:55.274Z,31.20
2022-08-12T11:27:29.617Z,31.09
2022-08-12T11:30:06.924Z,31.15
2022-08-12T11:32:39.153Z,31.52
2022-08-12T11:35:11.638Z,32.31
2022-08-12T11:37:58.365Z,31.75
2022-08-12T11:40:29.271Z,30.57
2022-08-12T11:43:11.930Z,30.57
2022-08-12T11:45:56.769Z,31.25
2022-08-12T11:48:26.907Z,32.02
2022-08-12T11:51:38.810Z,31.71
2022-08-12T11:54:35.814Z,31.86
2022-08-12T11:58:07.438Z,31.85
2022-08-12T12:02:49.718Z,32.21
2022-08-12T12:05:18.241Z,32.16
2022-08-12T12:08:37.590Z,32.31
2022-08-12T12:10:37.965Z,32.21
2022-08-12T12:13:11.709Z,32.05
2022-08-12T12:15:53.180Z,31.71
2022-08-12T12:19:00.823Z,32.73
2022-08-12T12:21:56.942Z,33.33
2022-08-12T12:24:27.919Z,33.79
2022-08-12T12:27:00.160Z,33.62
2022-08-12T12:30:19.886Z,33.88
2022-08-12T12:32:33.528Z,33.57
2022-08-12T12:35:44.464Z,33.20
2022-08-12T12:38:12.186Z,31.89
2022-08-12T12:40:46.276Z,31.39
2022-08-12T12:43:43.661Z,31.45
2022-08-12T12:46:31.769Z,31.32
2022-08-12T12:49:27.432Z,31.53
2022-08-12T12:52:21.336Z,31.16
2022-08-12T12:55:02.909Z,31.10
2022-08-12T12:58:01.000Z,30.87
2022-08-12T13:01:25.515Z,31.55
2022-08-12T13:04:08.212Z,31.56
2022-08-12T13:07:07.291Z,31.13
2022-08-12T13:09:46.702Z,31.61
2022-08-12T13:12:18.051Z,32.59
2022-08-12T13:14:54.979Z,32.39
2022-08-12T13:18:03.233Z,32.51
2022-08-12T13:20:37.713Z,32.46
2022-08-12T13:23:36.734Z,32.77
2022-08-12T13:25:58.049Z,32.69
2022-08-12T13:28:56.975Z,32.76
2022-08-12T13:31:29.652Z,32.75
2022-08-12T13:34:31.963Z,32.28
2022-08-12T13:37:09.094Z,31.44
2022-08-12T13:40:20.285Z,31.71
2022-08-12T13:43:41.090Z,32.22
2022-08-12T13:46:30.707Z,32.79
2022-08-12T13:48:59.555Z,32.66
2022-08-12T13:51:40.918Z,32.73
2022-08-12T13:54:14.185Z,33.02
2022-08-12T13:56:49.808Z,33.48
2022-08-12T13:59:24.835Z,33.75
2022-08-12T14:01:57.840Z,33.56
2022-08-12T14:05:37.448Z,33.63
2022-08-12T14:08:12.255Z,33.83
2022-08-12T14:10:52.182Z,34.06
2022-08-12T14:14:03.082Z,34.31
2022-08-12T14:16:48.569Z,34.35
2022-08-12T14:19:24.158Z,34.06
2022-08-12T14:22:26.166Z,33.66
2022-08-12T14:25:28.601Z,33.79
2022-08-12T14:28:18.222Z,33.79
2022-08-12T14:31:21.639Z,33.96
2022-08-12T14:34:14.974Z,34.05
2022-08-12T14:37:55.363Z,33.40
2022-08-12T14:41:08.882Z,33.35
2022-08-12T14:43:44.512Z,32.89
2022-08-12T14:47:09.279Z,32.26
2022-08-12T14:52:07.862Z,31.98
2022-08-12T14:57:33.511Z,31.50
2022-08-12T15:00:52.304Z,31.50
2022-08-12T15:03:52.635Z,31.56
2022-08-12T15:06:44.184Z,31.98
2022-08-12T15:09:46.550Z,32.28
2022-08-12T15:12:47.438Z,32.61
2022-08-12T15:15:26.861Z,31.83
2022-08-12T15:18:05.024Z,31.32
2022-08-12T15:20:38.046Z,31.20
2022-08-12T15:23:17.379Z,31.17
2022-08-12T15:26:28.637Z,31.15
2022-08-12T15:30:11.298Z,31.06
2022-08-12T15:33:45.074Z,31.37
2022-08-12T15:36:54.338Z,31.01
2022-08-12T15:40:29.992Z,31.14
2022-08-12T15:44:37.998Z,30.93
2022-08-12T15:47:48.233Z,30.69
2022-08-12T15:51:24.193Z,30.43
2022-08-12T15:55:18.043Z,30.34
2022-08-12T15:58:41.444Z,30.53
2022-08-12T16:01:25.577Z,30.36
2022-08-12T16:04:35.869Z,30.16
2022-08-12T16:07:41.349Z,30.34
2022-08-12T16:10:30.699Z,30.26
2022-08-12T16:14:07.769Z,30.14
2022-08-12T16:17:02.398Z,30.15
2022-08-12T16:20:02.701Z,30.47
2022-08-12T16:22:33.569Z,30.48
2022-08-12T16:26:05.190Z,30.63
2022-08-12T16:28:56.207Z,30.40
2022-08-12T16:32:09.820Z,30.37
2022-08-12T16:34:55.107Z,30.30
2022-08-12T16:38:25.115Z,30.50
2022-08-12T16:41:13.473Z,30.64
2022-08-12T16:43:47.036Z,30.60
2022-08-12T16:46:31.952Z,30.71
2022-08-12T16:49:13.672Z,30.75
2022-08-12T16:51:52.648Z,31.02
2022-08-12T16:54:36.425Z,30.98
2022-08-12T16:57:09.906Z,30.71
2022-08-12T16:59:54.557Z,30.30
2022-08-12T17:02:37.831Z,30.62
2022-08-12T17:05:56.045Z,30.42
2022-08-12T17:08:29.074Z,30.36
2022-08-12T17:10:59.157Z,30.39
2022-08-12T17:13:33.903Z,30.36
2022-08-12T17:16:05.565Z,30.10
2022-08-12T17:19:09.545Z,30.08
2022-08-12T17:22:01.342Z,30.04
2022-08-12T17:24:36.546Z,30.02
2022-08-12T17:27:16.983Z,29.89
2022-08-12T17:30:04.422Z,29.79
2022-08-12T17:33:17.092Z,29.92
2022-08-12T17:35:58.562Z,29.74
2022-08-12T17:38:39.424Z,29.61
2022-08-12T17:41:56.461Z,29.56
2022-08-12T17:44:41.512Z,29.41
2022-08-12T17:47:37.022Z,29.38
2022-08-12T17:50:15.542Z,29.07
2022-08-12T17:53:00.979Z,28.96
2022-08-12T17:55:44.113Z,28.83
2022-08-12T17:58:35.525Z,28.81
2022-08-12T18:02:11.147Z,28.86
2022-08-12T18:05:27.060Z,28.77
2022-08-12T18:09:09.023Z,28.54
2022-08-12T18:12:07.841Z,28.40
2022-08-12T18:15:09.015Z,28.25
2022-08-12T18:17:47.013Z,28.19
2022-08-12T18:20:49.622Z,28.11
2022-08-12T18:23:24.286Z,27.95
2022-08-12T18:26:33.672Z,27.76
2022-08-12T18:30:04.592Z,27.63
2022-08-12T18:33:41.726Z,27.29
2022-08-12T18:36:51.739Z,27.11
2022-08-12T18:39:53.383Z,27.03
2022-08-12T18:42:28.330Z,26.93
2022-08-12T18:45:07.458Z,26.87
2022-08-12T18:47:47.080Z,26.72
2022-08-12T18:50:24.768Z,26.46
2022-08-12T18:52:54.487Z,26.35
2022-08-12T18:55:59.191Z,26.07
2022-08-12T18:58:59.220Z,25.86
2022-08-12T19:02:19.384Z,25.61
2022-08-12T19:05:13.292Z,25.41
2022-08-12T19:08:23.924Z,25.22
2022-08-12T19:11:38.298Z,25.11
2022-08-12T19:14:42.449Z,24.93
2022-08-12T19:17:20.152Z,24.78
2022-08-12T19:19:48.997Z,24.72
2022-08-12T19:22:28.669Z,24.70
2022-08-12T19:25:18.770Z,24.55
2022-08-12T19:28:29.563Z,24.38
2022-08-12T19:32:09.126Z,24.19
2022-08-12T19:39:15.188Z,24.07
2022-08-12T19:42:48.249Z,24.00
2022-08-12T19:46:40.926Z,23.88
2022-08-12T19:50:27.919Z,23.78
2022-08-12T19:54:17.988Z,23.77
2022-08-12T19:57:10.272Z,23.64
2022-08-12T20:00:54.421Z,23.59
2022-08-12T20:03:59.135Z,23.56
2022-08-12T20:07:34.620Z,23.53
2022-08-12T20:12:12.607Z,23.52
2022-08-12T20:14:47.141Z,23.52
2022-08-12T20:18:03.598Z,23.44
2022-08-12T20:21:24.420Z,23.37
2022-08-12T20:24:38.100Z,23.29
2022-08-12T20:28:03.508Z,23.25
2022-08-12T20:31:34.545Z,23.30
2022-08-12T20:35:24.582Z,23.28
2022-08-12T20:38:46.679Z,23.22
2022-08-12T20:41:29.330Z,23.24
2022-08-12T20:45:01.478Z,23.20
2022-08-12T20:48:44.476Z,23.14
2022-08-12T20:51:40.777Z,23.08
2022-08-12T20:55:00.663Z,23.08
2022-08-12T20:58:14.849Z,23.06
2022-08-12T21:01:15.446Z,23.12
2022-08-12T21:04:43.898Z,23.22
2022-08-12T21:08:02.509Z,23.27
2022-08-12T21:11:28.423Z,23.30
2022-08-12T21:14:53.011Z,23.38
2022-08-12T21:18:09.837Z,23.31
2022-08-12T21:20:54.145Z,23.28
2022-08-12T21:23:25.336Z,23.21
2022-08-12T21:26:24.284Z,23.14
2022-08-12T21:29:01.548Z,23.15
2022-08-12T21:32:36.054Z,23.17
2022-08-12T21:36:02.705Z,23.16
2022-08-12T21:39:39.331Z,23.19
2022-08-12T21:42:41.945Z,23.08
2022-08-12T21:45:45.337Z,23.16
2022-08-12T21:49:05.715Z,23.20
2022-08-12T21:51:49.973Z,23.25
2022-08-12T21:55:03.498Z,23.21
2022-08-12T21:57:50.588Z,23.02
2022-08-12T22:01:35.758Z,22.96
2022-08-12T22:05:18.717Z,23.08
2022-08-12T22:08:29.689Z,23.13
2022-08-12T22:12:17.706Z,23.25
2022-08-12T22:15:37.984Z,23.57
2022-08-12T22:19:03.604Z,23.72
2022-08-12T22:21:58.608Z,23.87
2022-08-12T22:24:58.508Z,23.93
2022-08-12T22:28:06.918Z,24.04
2022-08-12T22:31:15.424Z,24.11
2022-08-12T22:34:29.573Z,24.16
2022-08-12T22:36:58.758Z,24.16
2022-08-12T22:39:35.817Z,24.16
2022-08-12T22:43:19.040Z,24.10
2022-08-12T22:46:53.459Z,24.02
2022-08-12T22:50:27.967Z,23.86
2022-08-12T22:53:36.479Z,23.61
2022-08-12T22:56:52.087Z,23.55
2022-08-12T22:59:55.220Z,23.51
2022-08-12T23:02:34.877Z,23.46
2022-08-12T23:06:09.806Z,23.49
2022-08-12T23:09:02.488Z,23.55
2022-08-12T23:11:59.838Z,23.50
2022-08-12T23:15:01.397Z,23.53
2022-08-12T23:17:41.078Z,23.58
2022-08-12T23:20:31.494Z,23.61
2022-08-12T23:24:09.470Z,23.56
2022-08-12T23:27:13.445Z,23.60
2022-08-12T23:30:19.214Z,23.56
2022-08-12T23:33:13.196Z,23.69
2022-08-12T23:36:39.198Z,23.70
2022-08-12T23:40:13.605Z,23.63
2022-08-12T23:46:44.902Z,23.27
2022-08-12T23:49:55.827Z,23.17
2022-08-12T23:52:56.526Z,23.10
2022-08-12T23:56:18.240Z,23.09
